Time,TemperatureF,DewpointF,PressureIn,WindDirection,WindDirectionDegrees,WindSpeedMPH,WindSpeedGustMPH,Humidity,HourlyPrecipIn,Conditions,Clouds,dailyrainin,SolarRadiationWatts/m^2,SoftwareType,DateUTC
2013-03-11 00:08:00,27.2,8.0,30.12,East,101,1.0,-999.0,45,-99.99,,,0.00,0,weatherlink.com 1.10,2013-03-11 06:08:00,
2013-03-11 00:23:00,27.2,9.0,30.11,East,101,0.0,-999.0,46,-99.99,,,0.00,0,weatherlink.com 1.10,2013-03-11 06:23:00,
2013-03-11 00:38:00,26.9,9.0,30.11,East,101,0.0,-999.0,46,-99.99,,,0.00,0,weatherlink.com 1.10,2013-03-11 06:38:00,
2013-03-11 00:53:00,26.4,9.0,30.10,East,101,0.0,-999.0,48,-99.99,,,0.00,0,weatherlink.com 1.10,2013-03-11 06:53:00,
2013-03-11 01:08:00,26.4,9.0,30.09,East,101,0.0,-999.0,47,-99.99,,,0.00,0,weatherlink.com 1.10,2013-03-11 07:08:00,
2013-03-11 01:23:00,26.6,9.0,30.09,East,101,0.0,-999.0,47,-99.99,,,0.00,0,weatherlink.com 1.10,2013-03-11 07:23:00,
2013-03-11 01:38:00,26.5,9.0,30.09,East,101,0.0,-999.0,47,-99.99,,,0.00,0,weatherlink.com 1.10,2013-03-11 07:38:00,
2013-03-11 01:53:00,26.7,9.0,30.08,East,101,0.0,-999.0,47,-99.99,,,0.00,0,weatherlink.com 1.10,2013-03-11 07:53:00,
2013-03-11 02:08:00,26.9,9.0,30.08,East,101,0.0,-999.0,47,-99.99,,,0.00,0,weatherlink.com 1.10,2013-03-11 08:08:00,
2013-03-11 02:23:00,26.3,9.0,30.07,East,101,0.0,-999.0,48,-99.99,,,0.00,0,weatherlink.com 1.10,2013-03-11 08:23:00,
2013-03-11 02:38:00,26.2,9.0,30.07,East,101,0.0,-999.0,49,-99.99,,,0.00,0,weatherlink.com 1.10,2013-03-11 08:38:00,
2013-03-11 02:53:00,26.4,9.0,30.06,East,101,0.0,-999.0,49,-99.99,,,0.00,0,weatherlink.com 1.10,2013-03-11 08:53:00,
2013-03-11 03:08:00,26.5,10.0,30.06,East,101,2.0,-999.0,50,-99.99,,,0.00,0,weatherlink.com 1.10,2013-03-11 09:08:00,
2013-03-11 03:23:00,26.5,10.0,30.06,East,101,0.0,-999.0,49,-99.99,,,0.00,0,weatherlink.com 1.10,2013-03-11 09:23:00,
2013-03-11 03:38:00,26.4,9.0,30.06,East,101,0.0,-999.0,49,-99.99,,,0.00,0,weatherlink.com 1.10,2013-03-11 09:38:00,
2013-03-11 03:53:00,27.0,11.0,30.05,East,101,0.0,-999.0,50,-99.99,,,0.00,0,weatherlink.com 1.10,2013-03-11 09:53:00,
2013-03-11 04:09:00,27.6,11.0,30.05,East,101,0.0,-999.0,49,-99.99,,,0.00,0,weatherlink.com 1.10,2013-03-11 10:09:00,
2013-03-11 04:24:00,28.4,11.0,30.04,East,101,0.0,-999.0,48,-99.99,,,0.00,0,weatherlink.com 1.10,2013-03-11 10:24:00,
2013-03-11 04:39:00,28.8,12.0,30.04,East,101,2.0,-999.0,49,-99.99,,,0.00,0,weatherlink.com 1.10,2013-03-11 10:39:00,
2013-03-11 04:54:00,32.6,12.0,30.04,North,355,3.0,-999.0,42,-99.99,,,0.00,0,weatherlink.com 1.10,2013-03-11 10:54:00,
2013-03-11 05:09:00,34.3,11.0,30.04,North,355,1.0,-999.0,38,-99.99,,,0.00,0,weatherlink.com 1.10,2013-03-11 11:09:00,
2013-03-11 05:39:00,30.6,12.0,30.04,North,355,0.0,-999.0,46,-99.99,,,0.00,0,weatherlink.com 1.10,2013-03-11 11:39:00,
2013-03-11 05:54:00,30.9,11.0,30.04,North,355,0.0,-999.0,44,-99.99,,,0.00,0,weatherlink.com 1.10,2013-03-11 11:54:00,
2013-03-11 06:09:00,30.4,10.0,30.04,North,355,0.0,-999.0,43,-99.99,,,0.00,0,weatherlink.com 1.10,2013-03-11 12:09:00,
2013-03-11 06:24:00,30.4,10.0,30.03,North,355,0.0,-999.0,43,-99.99,,,0.00,0,weatherlink.com 1.10,2013-03-11 12:24:00,
2013-03-11 06:39:00,29.8,11.0,30.03,North,355,0.0,-999.0,46,-99.99,,,0.00,0,weatherlink.com 1.10,2013-03-11 12:39:00,
2013-03-11 06:54:00,29.8,15.0,30.04,North,355,0.0,-999.0,54,-99.99,,,0.00,0,weatherlink.com 1.10,2013-03-11 12:54:00,
2013-03-11 07:09:00,34.2,20.0,30.03,North,355,2.0,-999.0,57,-99.99,,,0.00,0,weatherlink.com 1.10,2013-03-11 13:09:00,
2013-03-11 07:24:00,39.2,24.0,30.03,NNW,333,4.0,-999.0,54,-99.99,,,0.00,7,weatherlink.com 1.10,2013-03-11 13:24:00,
2013-03-11 07:39:00,41.5,24.0,30.04,NNW,346,4.0,-999.0,51,-99.99,,,0.00,12,weatherlink.com 1.10,2013-03-11 13:39:00,
2013-03-11 07:54:00,42.0,24.0,30.04,NNW,341,8.0,-999.0,50,-99.99,,,0.00,25,weatherlink.com 1.10,2013-03-11 13:54:00,
2013-03-11 08:09:00,42.3,25.0,30.03,NW,322,7.0,-999.0,51,-99.99,,,0.00,53,weatherlink.com 1.10,2013-03-11 14:09:00,
2013-03-11 08:24:00,42.6,26.0,30.03,NW,313,4.0,-999.0,53,-99.99,,,0.00,65,weatherlink.com 1.10,2013-03-11 14:24:00,
2013-03-11 08:39:00,42.4,27.0,30.02,WNW,287,2.0,-999.0,54,-99.99,,,0.00,76,weatherlink.com 1.10,2013-03-11 14:39:00,
2013-03-11 08:54:00,42.5,27.0,30.02,NW,313,1.0,-999.0,54,-99.99,,,0.00,100,weatherlink.com 1.10,2013-03-11 14:54:00,
2013-03-11 09:09:00,44.1,26.0,30.02,NNW,331,3.0,-999.0,49,-99.99,,,0.00,97,weatherlink.com 1.10,2013-03-11 15:09:00,
2013-03-11 09:24:00,45.4,24.0,30.02,NNW,332,5.0,-999.0,44,-99.99,,,0.00,197,weatherlink.com 1.10,2013-03-11 15:24:00,
2013-03-11 09:39:00,46.4,23.0,30.02,NW,318,6.0,-999.0,40,-99.99,,,0.00,156,weatherlink.com 1.10,2013-03-11 15:39:00,
2013-03-11 09:54:00,46.4,24.0,30.02,NW,308,12.0,-999.0,41,-99.99,,,0.00,142,weatherlink.com 1.10,2013-03-11 15:54:00,
2013-03-11 10:10:00,47.0,24.0,30.02,NW,318,10.0,-999.0,40,-99.99,,,0.00,415,weatherlink.com 1.10,2013-03-11 16:10:00,
2013-03-11 10:25:00,47.0,24.0,30.03,North,350,12.0,-999.0,41,-99.99,,,0.00,369,weatherlink.com 1.10,2013-03-11 16:25:00,
2013-03-11 10:40:00,46.0,24.0,30.04,NNW,331,10.0,-999.0,42,-99.99,,,0.00,163,weatherlink.com 1.10,2013-03-11 16:40:00,
2013-03-11 10:55:00,46.0,21.0,30.04,NNW,344,9.0,-999.0,38,-99.99,,,0.00,148,weatherlink.com 1.10,2013-03-11 16:55:00,
2013-03-11 11:10:00,46.7,20.0,30.04,NNW,334,7.0,-999.0,34,-99.99,,,0.00,276,weatherlink.com 1.10,2013-03-11 17:10:00,
2013-03-11 11:25:00,46.9,20.0,30.03,NNW,329,7.0,-999.0,35,-99.99,,,0.00,454,weatherlink.com 1.10,2013-03-11 17:25:00,
2013-03-11 11:40:00,47.1,19.0,30.04,NNW,347,11.0,-999.0,33,-99.99,,,0.00,564,weatherlink.com 1.10,2013-03-11 17:40:00,
2013-03-11 11:55:00,47.6,20.0,30.03,NW,323,14.0,-999.0,33,-99.99,,,0.00,468,weatherlink.com 1.10,2013-03-11 17:55:00,
2013-03-11 12:10:00,48.2,19.0,30.03,NW,321,11.0,-999.0,32,-99.99,,,0.00,501,weatherlink.com 1.10,2013-03-11 18:10:00,
2013-03-11 12:25:00,47.6,18.0,30.04,NNW,340,12.0,-999.0,31,-99.99,,,0.00,666,weatherlink.com 1.10,2013-03-11 18:25:00,
2013-03-11 12:40:00,48.1,19.0,30.03,NNW,335,13.0,-999.0,31,-99.99,,,0.00,613,weatherlink.com 1.10,2013-03-11 18:40:00,
2013-03-11 12:55:00,48.6,18.0,30.03,NNW,338,10.0,-999.0,30,-99.99,,,0.00,680,weatherlink.com 1.10,2013-03-11 18:55:00,
2013-03-11 13:10:00,49.3,19.0,30.03,NNW,339,12.0,-999.0,30,-99.99,,,0.00,749,weatherlink.com 1.10,2013-03-11 19:10:00,
2013-03-11 13:25:00,49.7,18.0,30.02,NNW,336,7.0,-999.0,29,-99.99,,,0.00,705,weatherlink.com 1.10,2013-03-11 19:25:00,
2013-03-11 13:40:00,49.9,19.0,30.02,NNW,338,9.0,-999.0,30,-99.99,,,0.00,647,weatherlink.com 1.10,2013-03-11 19:40:00,
2013-03-11 13:55:00,48.9,19.0,30.02,NNW,347,7.0,-999.0,31,-99.99,,,0.00,705,weatherlink.com 1.10,2013-03-11 19:55:00,
2013-03-11 14:10:00,47.9,18.0,30.03,NW,324,12.0,-999.0,31,-99.99,,,0.00,396,weatherlink.com 1.10,2013-03-11 20:10:00,
2013-03-11 14:25:00,45.7,19.0,30.04,NNW,333,6.0,-999.0,35,-99.99,,,0.00,489,weatherlink.com 1.10,2013-03-11 20:25:00,
2013-03-11 14:40:00,46.8,20.0,30.04,NNW,337,5.0,-999.0,34,-99.99,,,0.00,670,weatherlink.com 1.10,2013-03-11 20:40:00,
2013-03-11 14:55:00,46.5,18.0,30.04,NNW,332,13.0,-999.0,32,-99.99,,,0.00,60,weatherlink.com 1.10,2013-03-11 20:55:00,
2013-03-11 15:10:00,47.5,18.0,30.04,NW,315,7.0,-999.0,31,-99.99,,,0.00,594,weatherlink.com 1.10,2013-03-11 21:10:00,
2013-03-11 15:25:00,44.9,19.0,30.05,NW,319,9.0,-999.0,35,-99.99,,,0.00,332,weatherlink.com 1.10,2013-03-11 21:25:00,
2013-03-11 15:40:00,45.5,19.0,30.05,NNW,341,12.0,-999.0,35,-99.99,,,0.00,510,weatherlink.com 1.10,2013-03-11 21:40:00,
2013-03-11 15:55:00,44.7,21.0,30.06,North,360,10.0,-999.0,39,-99.99,,,0.00,452,weatherlink.com 1.10,2013-03-11 21:55:00,
2013-03-11 16:10:00,43.7,22.0,30.07,NNW,335,6.0,-999.0,42,-99.99,,,0.00,431,weatherlink.com 1.10,2013-03-11 22:10:00,
2013-03-11 16:25:00,44.4,21.0,30.06,NW,315,5.0,-999.0,39,-99.99,,,0.00,413,weatherlink.com 1.10,2013-03-11 22:25:00,
2013-03-11 16:40:00,43.9,20.0,30.06,NNW,327,5.0,-999.0,39,-99.99,,,0.00,260,weatherlink.com 1.10,2013-03-11 22:40:00,
2013-03-11 16:55:00,44.1,20.0,30.06,NW,319,10.0,-999.0,38,-99.99,,,0.00,315,weatherlink.com 1.10,2013-03-11 22:55:00,
2013-03-11 17:10:00,43.0,19.0,30.07,North,350,9.0,-999.0,38,-99.99,,,0.00,211,weatherlink.com 1.10,2013-03-11 23:10:00,
2013-03-11 17:25:00,41.7,19.0,30.07,NW,314,10.0,-999.0,41,-99.99,,,0.00,32,weatherlink.com 1.10,2013-03-11 23:25:00,
2013-03-11 17:40:00,41.8,20.0,30.08,NNW,331,11.0,-999.0,41,-99.99,,,0.00,153,weatherlink.com 1.10,2013-03-11 23:40:00,
2013-03-11 17:55:00,40.6,20.0,30.09,North,349,6.0,-999.0,44,-99.99,,,0.00,91,weatherlink.com 1.10,2013-03-11 23:55:00,
2013-03-11 18:10:00,39.5,20.0,30.10,NNW,336,8.0,-999.0,46,-99.99,,,0.00,18,weatherlink.com 1.10,2013-03-12 00:10:00,
2013-03-11 18:25:00,38.3,20.0,30.11,NW,318,6.0,-999.0,47,-99.99,,,0.00,14,weatherlink.com 1.10,2013-03-12 00:25:00,
2013-03-11 18:40:00,38.0,19.0,30.12,NNW,348,9.0,-999.0,47,-99.99,,,0.00,7,weatherlink.com 1.10,2013-03-12 00:40:00,
2013-03-11 18:55:00,37.1,19.0,30.13,NW,325,6.0,-999.0,48,-99.99,,,0.00,0,weatherlink.com 1.10,2013-03-12 00:55:00,
2013-03-11 19:10:00,36.4,18.0,30.13,NNW,336,5.0,-999.0,47,-99.99,,,0.00,0,weatherlink.com 1.10,2013-03-12 01:10:00,
2013-03-11 19:25:00,35.7,18.0,30.14,NNW,342,6.0,-999.0,48,-99.99,,,0.00,0,weatherlink.com 1.10,2013-03-12 01:25:00,
2013-03-11 19:40:00,35.3,18.0,30.15,NNW,329,2.0,-999.0,49,-99.99,,,0.00,0,weatherlink.com 1.10,2013-03-12 01:40:00,
2013-03-11 19:55:00,35.5,18.0,30.15,NNW,344,6.0,-999.0,50,-99.99,,,0.00,0,weatherlink.com 1.10,2013-03-12 01:55:00,
2013-03-11 20:10:00,35.1,18.0,30.16,NNW,329,5.0,-999.0,50,-99.99,,,0.00,0,weatherlink.com 1.10,2013-03-12 02:10:00,
2013-03-11 20:26:00,34.3,18.0,30.17,NNW,335,3.0,-999.0,52,-99.99,,,0.00,0,weatherlink.com 1.10,2013-03-12 02:26:00,
2013-03-11 20:41:00,33.5,17.0,30.17,NNW,338,3.0,-999.0,52,-99.99,,,0.00,0,weatherlink.com 1.10,2013-03-12 02:41:00,
2013-03-11 20:56:00,33.5,17.0,30.18,NNW,340,3.0,-999.0,51,-99.99,,,0.00,0,weatherlink.com 1.10,2013-03-12 02:56:00,
2013-03-11 21:11:00,33.3,16.0,30.19,NNW,340,3.0,-999.0,50,-99.99,,,0.00,0,weatherlink.com 1.10,2013-03-12 03:11:00,
2013-03-11 21:26:00,34.4,16.0,30.19,NNW,333,7.0,-999.0,48,-99.99,,,0.00,0,weatherlink.com 1.10,2013-03-12 03:26:00,
2013-03-11 21:41:00,34.4,17.0,30.20,NNW,330,3.0,-999.0,49,-99.99,,,0.00,0,weatherlink.com 1.10,2013-03-12 03:41:00,
2013-03-11 23:11:00,32.5,15.0,30.23,NNW,346,9.0,-999.0,49,-99.99,,,0.00,0,weatherlink.com 1.10,2013-03-12 05:11:00,
2013-03-11 23:41:00,31.3,14.0,30.23,NNW,336,11.0,-999.0,49,-99.99,,,0.00,0,weatherlink.com 1.10,2013-03-12 05:41:00,
2013-03-11 23:56:00,30.5,14.0,30.24,NNW,328,7.0,-999.0,50,-99.99,,,0.00,0,weatherlink.com 1.10,2013-03-12 05:56:00,